Time;durP1;ratioP1;P1;durP2;ratioP2;P2;SDS_P1;SDS_P2;PMS_P1;PMS_P2;Temp;Humidity;BMP_temperature;BMP_pressure;BME280_temperature;BME280_humidity;BME280_pressure;Samples;Min_cycle;Max_cycle;Signal;HPM_P1;HPM_P2
2022/10/25 00:00:27;;;;;;;12.73;6.38;;;;;;;;;;5042284;28;20414;-83
2022/10/25 00:02:53;;;;;;;11.63;5.85;;;;;;;;;;5042305;28;20409;-83
2022/10/25 00:05:20;;;;;;;12.53;5.70;;;;;;;;;;5042173;28;20407;-83
2022/10/25 00:07:46;;;;;;;10.23;4.85;;;;;;;;;;5045149;28;20426;-83
2022/10/25 00:10:13;;;;;;;15.77;5.60;;;;;;;;;;5045850;28;20425;-83
2022/10/25 00:12:42;;;;;;;11.73;5.50;;;;;;;;;;5042846;28;20950;-82
2022/10/25 00:15:10;;;;;;;12.30;5.47;;;;;;;;;;5041108;28;21403;-81
2022/10/25 00:17:36;;;;;;;11.43;6.43;;;;;;;;;;5024452;28;20440;-81
2022/10/25 00:20:03;;;;;;;14.70;6.10;;;;;;;;;;5023008;28;20428;-81
2022/10/25 00:22:29;;;;;;;15.03;6.10;;;;;;;;;;5043301;28;20431;-81
2022/10/25 00:24:56;;;;;;;13.30;5.80;;;;;;;;;;5045055;28;20444;-81
2022/10/25 00:27:22;;;;;;;12.43;5.20;;;;;;;;;;5023083;28;20501;-81
2022/10/25 00:29:51;;;;;;;12.18;5.07;;;;;;;;;;5024673;28;20436;-81
2022/10/25 00:32:18;;;;;;;15.52;5.60;;;;;;;;;;5043825;28;20421;-81
2022/10/25 00:34:44;;;;;;;11.65;5.20;;;;;;;;;;5044540;28;20951;-82
2022/10/25 00:37:10;;;;;;;14.88;5.60;;;;;;;;;;5042456;28;20427;-81
2022/10/25 00:39:38;;;;;;;13.43;5.43;;;;;;;;;;5044352;28;20432;-82
2022/10/25 00:42:05;;;;;;;13.77;6.00;;;;;;;;;;5040966;28;20540;-82
2022/10/25 00:44:50;;;;;;;11.13;5.50;;;;;;;;;;5041209;28;20433;-81
2022/10/25 00:47:20;;;;;;;12.43;5.35;;;;;;;;;;5041682;28;20433;-81
2022/10/25 00:49:49;;;;;;;11.55;6.60;;;;;;;;;;5041285;28;20434;-81
2022/10/25 00:52:16;;;;;;;16.02;6.00;;;;;;;;;;5043774;28;20437;-81
2022/10/25 00:54:44;;;;;;;15.02;6.13;;;;;;;;;;5043785;28;20438;-81
2022/10/25 00:57:19;;;;;;;9.43;5.55;;;;;;;;;;5041656;28;20432;-81
2022/10/25 00:59:46;;;;;;;9.88;5.47;;;;;;;;;;5044194;28;20953;-81
2022/10/25 01:02:14;;;;;;;13.95;6.65;;;;;;;;;;5045864;28;20765;-82
2022/10/25 01:04:40;;;;;;;14.73;6.80;;;;;;;;;;5044370;28;20441;-82
2022/10/25 01:07:08;;;;;;;16.63;7.28;;;;;;;;;;5039853;28;20434;-81
2022/10/25 01:09:36;;;;;;;14.00;7.80;;;;;;;;;;5041624;28;20436;-82
2022/10/25 01:12:02;;;;;;;14.63;8.40;;;;;;;;;;5042627;28;20892;-81
2022/10/25 01:14:29;;;;;;;14.93;8.05;;;;;;;;;;5043954;28;20425;-82
2022/10/25 01:17:00;;;;;;;13.57;8.82;;;;;;;;;;5043101;28;20425;-81
2022/10/25 01:19:36;;;;;;;21.35;9.30;;;;;;;;;;5043361;28;20436;-82
2022/10/25 01:22:05;;;;;;;23.05;11.05;;;;;;;;;;5042199;28;20432;-82
2022/10/25 01:24:47;;;;;;;22.40;11.40;;;;;;;;;;5043378;28;20429;-81
2022/10/25 01:27:28;;;;;;;22.60;12.00;;;;;;;;;;5041500;28;20422;-80
2022/10/25 01:30:13;;;;;;;21.17;11.32;;;;;;;;;;5011231;28;20421;-82
2022/10/25 01:32:48;;;;;;;23.10;11.48;;;;;;;;;;5040750;28;20408;-81
2022/10/25 01:35:19;;;;;;;18.55;11.27;;;;;;;;;;5043992;28;20421;-82
2022/10/25 01:37:53;;;;;;;23.35;12.20;;;;;;;;;;5043544;28;20448;-82
2022/10/25 01:40:23;;;;;;;22.03;12.53;;;;;;;;;;5039089;28;20418;-81
2022/10/25 01:42:54;;;;;;;20.25;11.02;;;;;;;;;;5044714;28;20440;-81
2022/10/25 01:45:23;;;;;;;17.85;11.45;;;;;;;;;;5043243;28;21081;-81
2022/10/25 01:47:52;;;;;;;16.25;11.63;;;;;;;;;;5048723;28;20444;-82
2022/10/25 01:50:23;;;;;;;22.90;11.93;;;;;;;;;;5044287;28;20422;-82
2022/10/25 01:52:49;;;;;;;22.02;13.13;;;;;;;;;;5046500;28;20444;-82
2022/10/25 01:55:16;;;;;;;19.30;12.75;;;;;;;;;;5048788;28;20429;-81
2022/10/25 01:57:51;;;;;;;17.73;12.90;;;;;;;;;;5045187;28;20417;-81
2022/10/25 02:00:18;;;;;;;20.38;13.10;;;;;;;;;;5046824;28;20418;-82
2022/10/25 02:02:53;;;;;;;23.52;12.10;;;;;;;;;;5046843;28;20429;-81
2022/10/25 02:05:26;;;;;;;20.38;13.13;;;;;;;;;;5045704;28;20413;-82
2022/10/25 02:07:56;;;;;;;24.77;13.48;;;;;;;;;;5046401;28;20435;-82
2022/10/25 02:10:25;;;;;;;22.05;12.48;;;;;;;;;;5040726;28;20440;-81
2022/10/25 02:12:55;;;;;;;19.67;11.90;;;;;;;;;;5047315;28;20438;-81
2022/10/25 02:15:24;;;;;;;18.25;12.50;;;;;;;;;;5047893;28;20901;-81
2022/10/25 02:17:54;;;;;;;23.47;13.50;;;;;;;;;;5046105;28;20428;-81
2022/10/25 02:20:23;;;;;;;20.45;12.35;;;;;;;;;;5045381;28;20782;-81
2022/10/25 02:22:51;;;;;;;18.05;12.13;;;;;;;;;;5047399;28;20434;-82
2022/10/25 02:25:18;;;;;;;20.42;11.80;;;;;;;;;;5045918;28;20501;-82
2022/10/25 02:27:45;;;;;;;21.37;13.00;;;;;;;;;;5044590;28;20424;-82
2022/10/25 02:30:11;;;;;;;18.33;12.55;;;;;;;;;;5045682;28;20441;-81
2022/10/25 02:32:38;;;;;;;17.70;12.32;;;;;;;;;;5044345;28;20434;-81
2022/10/25 02:35:05;;;;;;;19.77;12.97;;;;;;;;;;5044548;28;20812;-82
2022/10/25 02:37:32;;;;;;;18.43;13.07;;;;;;;;;;5047259;28;20429;-81
2022/10/25 02:39:59;;;;;;;19.33;12.80;;;;;;;;;;5043156;28;20427;-81
2022/10/25 02:42:26;;;;;;;17.33;12.43;;;;;;;;;;5047095;28;21023;-80
2022/10/25 02:44:52;;;;;;;20.40;12.52;;;;;;;;;;5045645;28;20797;-82
2022/10/25 02:47:19;;;;;;;17.23;11.90;;;;;;;;;;5045918;28;20413;-81
2022/10/25 02:49:45;;;;;;;21.95;13.82;;;;;;;;;;5042612;28;20433;-81
2022/10/25 02:52:12;;;;;;;20.97;13.50;;;;;;;;;;5045813;28;20507;-81
2022/10/25 02:54:39;;;;;;;18.17;12.50;;;;;;;;;;5045415;28;20434;-81
2022/10/25 02:57:06;;;;;;;19.20;12.90;;;;;;;;;;5044995;28;20801;-81
2022/10/25 02:59:32;;;;;;;22.58;13.18;;;;;;;;;;5049563;28;20420;-81
2022/10/25 03:01:58;;;;;;;21.30;13.52;;;;;;;;;;5047358;28;20433;-82
2022/10/25 03:04:25;;;;;;;21.27;13.80;;;;;;;;;;5043245;28;20433;-81
2022/10/25 03:06:51;;;;;;;23.70;13.68;;;;;;;;;;5044726;28;20437;-80
2022/10/25 03:09:19;;;;;;;21.93;13.30;;;;;;;;;;5045697;28;20926;-81
2022/10/25 03:11:48;;;;;;;26.00;14.05;;;;;;;;;;5046017;28;20950;-81
2022/10/25 03:14:14;;;;;;;20.52;14.95;;;;;;;;;;5045299;28;20504;-81
2022/10/25 03:16:41;;;;;;;20.80;14.10;;;;;;;;;;5043467;28;20426;-82
2022/10/25 03:19:07;;;;;;;22.40;14.05;;;;;;;;;;5046354;28;20905;-82
2022/10/25 03:21:34;;;;;;;21.23;14.35;;;;;;;;;;5045626;28;20433;-81
2022/10/25 03:24:00;;;;;;;23.77;14.85;;;;;;;;;;5045851;28;20434;-82
2022/10/25 03:26:26;;;;;;;22.52;14.60;;;;;;;;;;5040467;28;20433;-82
2022/10/25 03:28:54;;;;;;;23.17;14.50;;;;;;;;;;5042666;28;20413;-82
2022/10/25 03:31:21;;;;;;;24.08;14.50;;;;;;;;;;5045134;28;20930;-81
2022/10/25 03:33:50;;;;;;;23.17;14.50;;;;;;;;;;5044228;28;20919;-82
2022/10/25 03:36:17;;;;;;;23.20;15.10;;;;;;;;;;5044539;28;20985;-82
2022/10/25 03:38:43;;;;;;;22.70;15.60;;;;;;;;;;5045898;28;20428;-82
2022/10/25 03:41:09;;;;;;;23.15;15.27;;;;;;;;;;5046419;28;20425;-81
2022/10/25 03:43:35;;;;;;;22.75;15.10;;;;;;;;;;5042046;28;20427;-81
2022/10/25 03:46:03;;;;;;;21.25;15.35;;;;;;;;;;5046600;28;20430;-82
2022/10/25 03:48:30;;;;;;;25.38;15.50;;;;;;;;;;5043965;28;20918;-82
2022/10/25 03:50:57;;;;;;;21.98;15.30;;;;;;;;;;5042268;28;20442;-81
2022/10/25 03:53:23;;;;;;;21.45;15.50;;;;;;;;;;5042730;28;20935;-82
2022/10/25 03:55:49;;;;;;;25.20;15.70;;;;;;;;;;5042954;28;20431;-82
2022/10/25 03:58:16;;;;;;;25.20;15.47;;;;;;;;;;5041998;28;20816;-81
2022/10/25 04:00:44;;;;;;;24.02;15.80;;;;;;;;;;5043527;28;20440;-82
2022/10/25 04:03:12;;;;;;;25.17;15.85;;;;;;;;;;5046341;28;20817;-82
2022/10/25 04:05:39;;;;;;;24.25;15.57;;;;;;;;;;5044309;28;20419;-82
2022/10/25 04:08:06;;;;;;;26.60;14.85;;;;;;;;;;5044848;28;20454;-82
2022/10/25 04:10:32;;;;;;;26.08;16.08;;;;;;;;;;5043537;28;20413;-81
2022/10/25 04:12:58;;;;;;;23.77;16.23;;;;;;;;;;5043843;28;20433;-82
2022/10/25 04:15:25;;;;;;;23.35;15.55;;;;;;;;;;5040429;28;20936;-81
2022/10/25 04:17:52;;;;;;;21.10;15.80;;;;;;;;;;5044015;28;20421;-81
2022/10/25 04:20:21;;;;;;;23.52;16.08;;;;;;;;;;5043315;28;20413;-82
2022/10/25 04:22:52;;;;;;;30.52;17.77;;;;;;;;;;5046186;28;20442;-81
2022/10/25 04:25:19;;;;;;;27.27;16.30;;;;;;;;;;5043930;28;20417;-81
2022/10/25 04:27:45;;;;;;;24.70;15.70;;;;;;;;;;5044539;28;20426;-83
2022/10/25 04:30:12;;;;;;;24.65;17.25;;;;;;;;;;5039881;28;20425;-82
2022/10/25 04:32:39;;;;;;;26.58;16.67;;;;;;;;;;5038619;28;20465;-81
2022/10/25 04:35:06;;;;;;;23.95;16.10;;;;;;;;;;5041132;28;20440;-83
2022/10/25 04:37:34;;;;;;;30.30;15.63;;;;;;;;;;5039445;28;20941;-83
2022/10/25 04:40:00;;;;;;;27.35;17.10;;;;;;;;;;5041264;28;20424;-83
2022/10/25 04:42:26;;;;;;;30.15;17.50;;;;;;;;;;5041422;28;20423;-83
2022/10/25 04:44:53;;;;;;;30.65;17.50;;;;;;;;;;5043662;28;20437;-82
2022/10/25 04:47:19;;;;;;;25.38;16.48;;;;;;;;;;5044548;28;20455;-83
2022/10/25 04:49:47;;;;;;;28.98;16.52;;;;;;;;;;5044963;28;20439;-83
2022/10/25 04:52:13;;;;;;;26.27;16.98;;;;;;;;;;5039383;28;20422;-82
2022/10/25 04:54:41;;;;;;;25.10;16.57;;;;;;;;;;5043069;28;20445;-82
2022/10/25 04:57:07;;;;;;;32.03;17.08;;;;;;;;;;5042484;28;20423;-82
2022/10/25 04:59:33;;;;;;;27.83;17.35;;;;;;;;;;5027780;28;20522;-82
2022/10/25 05:02:00;;;;;;;25.35;17.13;;;;;;;;;;5042683;28;20429;-82
2022/10/25 05:04:26;;;;;;;23.35;17.00;;;;;;;;;;5042975;28;20425;-82
2022/10/25 05:06:52;;;;;;;26.35;16.70;;;;;;;;;;5038053;28;20431;-83
2022/10/25 05:09:19;;;;;;;26.50;16.80;;;;;;;;;;5045178;28;20433;-83
2022/10/25 05:11:46;;;;;;;24.83;15.83;;;;;;;;;;5040411;28;20432;-83
2022/10/25 05:14:14;;;;;;;23.80;15.90;;;;;;;;;;5039676;28;20431;-83
2022/10/25 05:16:40;;;;;;;25.00;15.80;;;;;;;;;;5039283;28;20430;-83
2022/10/25 05:19:07;;;;;;;29.67;16.80;;;;;;;;;;5039465;28;20433;-84
2022/10/25 05:21:34;;;;;;;24.65;16.95;;;;;;;;;;5041156;28;20440;-84
2022/10/25 05:24:01;;;;;;;21.50;16.17;;;;;;;;;;5041640;28;20437;-84
2022/10/25 05:26:28;;;;;;;28.73;16.80;;;;;;;;;;5037655;28;20428;-81
2022/10/25 05:28:56;;;;;;;25.00;16.08;;;;;;;;;;5042252;28;20436;-82
2022/10/25 05:31:23;;;;;;;26.23;16.50;;;;;;;;;;5039973;28;20429;-81
2022/10/25 05:33:50;;;;;;;24.80;16.70;;;;;;;;;;5043545;28;20421;-81
2022/10/25 05:36:18;;;;;;;26.20;15.95;;;;;;;;;;5042519;28;20433;-82
2022/10/25 05:38:44;;;;;;;21.95;15.25;;;;;;;;;;5039472;28;20433;-83
2022/10/25 05:41:11;;;;;;;26.15;16.45;;;;;;;;;;5041767;28;20421;-84
2022/10/25 05:43:37;;;;;;;24.58;16.45;;;;;;;;;;5039085;28;20447;-81
2022/10/25 05:46:07;;;;;;;25.10;16.07;;;;;;;;;;5040559;28;20942;-81
2022/10/25 05:48:34;;;;;;;20.70;15.00;;;;;;;;;;5041026;28;20433;-82
2022/10/25 05:51:11;;;;;;;26.88;15.80;;;;;;;;;;5041105;28;20474;-82
2022/10/25 05:53:38;;;;;;;25.38;16.08;;;;;;;;;;5041088;28;20451;-81
2022/10/25 05:56:05;;;;;;;20.83;15.05;;;;;;;;;;5040127;28;20434;-84
2022/10/25 05:58:31;;;;;;;20.17;15.05;;;;;;;;;;5040649;28;20441;-82
2022/10/25 06:00:59;;;;;;;26.85;15.48;;;;;;;;;;5043631;28;20417;-81
2022/10/25 06:03:28;;;;;;;23.88;15.00;;;;;;;;;;5040265;28;20905;-81
2022/10/25 06:05:56;;;;;;;22.52;15.23;;;;;;;;;;5038771;28;20425;-83
2022/10/25 06:08:22;;;;;;;29.58;16.65;;;;;;;;;;5041174;28;20526;-83
2022/10/25 06:10:48;;;;;;;25.75;16.38;;;;;;;;;;5040497;28;20429;-82
2022/10/25 06:13:15;;;;;;;25.67;15.30;;;;;;;;;;5039643;28;20901;-81
2022/10/25 06:15:41;;;;;;;26.50;16.95;;;;;;;;;;5040962;28;20854;-80
2022/10/25 06:18:07;;;;;;;24.55;15.98;;;;;;;;;;5037045;28;20438;-82
2022/10/25 06:20:35;;;;;;;26.73;15.55;;;;;;;;;;5040962;28;20429;-83
2022/10/25 06:23:01;;;;;;;24.20;15.00;;;;;;;;;;5040508;28;20476;-82
2022/10/25 06:25:28;;;;;;;26.35;15.57;;;;;;;;;;5039801;28;20433;-82
2022/10/25 06:27:54;;;;;;;23.98;15.70;;;;;;;;;;5035790;28;20524;-83
2022/10/25 06:30:21;;;;;;;26.65;15.57;;;;;;;;;;5040665;28;20410;-82
2022/10/25 06:32:47;;;;;;;25.60;14.93;;;;;;;;;;5045084;28;20434;-82
2022/10/25 06:35:15;;;;;;;22.95;14.90;;;;;;;;;;5042948;28;20440;-82
2022/10/25 06:37:42;;;;;;;21.05;14.10;;;;;;;;;;5044634;28;20429;-82
2022/10/25 06:40:09;;;;;;;19.10;14.10;;;;;;;;;;5044935;28;20436;-82
2022/10/25 06:42:35;;;;;;;24.67;15.63;;;;;;;;;;5044602;28;20942;-83
2022/10/25 06:45:02;;;;;;;28.00;15.90;;;;;;;;;;5043100;28;20442;-82
2022/10/25 06:47:28;;;;;;;24.17;14.25;;;;;;;;;;5045553;28;20491;-83
2022/10/25 06:49:55;;;;;;;27.10;14.85;;;;;;;;;;5041847;28;21124;-82
2022/10/25 06:52:21;;;;;;;26.67;14.75;;;;;;;;;;5042487;28;20426;-82
2022/10/25 06:54:49;;;;;;;27.60;14.73;;;;;;;;;;5042000;28;20438;-82
2022/10/25 06:57:15;;;;;;;26.40;15.25;;;;;;;;;;5046751;28;20459;-82
2022/10/25 06:59:41;;;;;;;23.15;14.30;;;;;;;;;;5043901;28;20440;-82
2022/10/25 07:02:09;;;;;;;25.85;14.27;;;;;;;;;;5043053;28;20430;-82
2022/10/25 07:04:36;;;;;;;25.92;13.63;;;;;;;;;;5044629;28;20447;-82
2022/10/25 07:07:03;;;;;;;22.20;13.85;;;;;;;;;;5041387;28;20431;-82
2022/10/25 07:09:29;;;;;;;21.37;14.60;;;;;;;;;;5043409;28;20436;-80
2022/10/25 07:11:57;;;;;;;22.25;14.18;;;;;;;;;;5041954;28;20425;-81
2022/10/25 07:14:23;;;;;;;24.97;14.33;;;;;;;;;;5040970;28;20511;-82
2022/10/25 07:16:49;;;;;;;23.58;15.30;;;;;;;;;;5044924;28;20429;-82
2022/10/25 07:19:15;;;;;;;24.15;13.85;;;;;;;;;;5043712;28;20433;-83
2022/10/25 07:21:42;;;;;;;30.25;15.82;;;;;;;;;;5044625;28;20416;-80
2022/10/25 07:24:11;;;;;;;22.13;15.38;;;;;;;;;;5042176;28;20434;-82
2022/10/25 07:26:37;;;;;;;23.48;14.60;;;;;;;;;;5043202;28;20578;-82
2022/10/25 07:29:05;;;;;;;22.92;14.23;;;;;;;;;;5040410;28;20429;-79
2022/10/25 07:31:33;;;;;;;29.17;16.42;;;;;;;;;;5044399;28;20835;-82
2022/10/25 07:34:00;;;;;;;29.27;15.60;;;;;;;;;;5041408;28;20925;-82
2022/10/25 07:36:27;;;;;;;27.17;14.95;;;;;;;;;;5043278;28;20431;-82
2022/10/25 07:38:53;;;;;;;23.43;14.87;;;;;;;;;;5040843;28;20435;-80
2022/10/25 07:41:21;;;;;;;24.00;14.93;;;;;;;;;;5041946;28;20429;-82
2022/10/25 07:43:47;;;;;;;23.33;15.35;;;;;;;;;;5037707;28;20928;-82
2022/10/25 07:46:15;;;;;;;25.27;14.50;;;;;;;;;;5041792;28;20811;-80
2022/10/25 07:48:41;;;;;;;33.35;16.38;;;;;;;;;;5042419;28;20908;-82
2022/10/25 07:51:10;;;;;;;30.00;16.20;;;;;;;;;;5040650;28;20427;-82
2022/10/25 07:53:36;;;;;;;32.42;16.50;;;;;;;;;;5041399;28;20450;-81
2022/10/25 07:56:03;;;;;;;26.17;14.80;;;;;;;;;;5043924;28;20510;-83
2022/10/25 07:58:31;;;;;;;29.95;15.48;;;;;;;;;;5041454;28;20437;-81
2022/10/25 08:01:01;;;;;;;24.88;15.63;;;;;;;;;;5042096;28;20483;-82
2022/10/25 08:03:29;;;;;;;22.45;15.00;;;;;;;;;;5041488;28;20421;-82
2022/10/25 08:05:56;;;;;;;25.80;14.60;;;;;;;;;;5040760;28;21668;-82
2022/10/25 08:08:23;;;;;;;30.48;15.52;;;;;;;;;;5043898;28;20429;-82
2022/10/25 08:10:49;;;;;;;28.40;15.43;;;;;;;;;;5041718;28;20871;-83
2022/10/25 08:13:16;;;;;;;29.60;14.87;;;;;;;;;;5044373;28;20426;-82
2022/10/25 08:15:42;;;;;;;29.40;15.15;;;;;;;;;;5040247;28;20441;-82
2022/10/25 08:18:09;;;;;;;31.13;15.70;;;;;;;;;;5042636;28;20910;-82
2022/10/25 08:20:36;;;;;;;25.83;13.73;;;;;;;;;;5040340;28;20445;-81
2022/10/25 08:23:03;;;;;;;25.10;12.70;;;;;;;;;;5044172;28;20427;-82
2022/10/25 08:25:29;;;;;;;23.92;13.13;;;;;;;;;;5042662;28;20418;-82
2022/10/25 08:27:56;;;;;;;20.47;12.20;;;;;;;;;;5041897;28;20436;-82
2022/10/25 08:30:22;;;;;;;23.15;12.60;;;;;;;;;;5040616;28;20429;-82
2022/10/25 08:32:48;;;;;;;34.83;14.88;;;;;;;;;;5041937;28;20432;-81
2022/10/25 08:35:15;;;;;;;25.02;13.05;;;;;;;;;;5043495;28;20499;-83
2022/10/25 08:37:43;;;;;;;22.85;11.68;;;;;;;;;;5043543;28;20518;-81
2022/10/25 08:40:17;;;;;;;17.15;12.65;;;;;;;;;;5042180;28;20716;-80
2022/10/25 08:42:50;;;;;;;24.70;12.90;;;;;;;;;;5045030;28;20436;-82
2022/10/25 08:45:19;;;;;;;22.02;11.77;;;;;;;;;;5042528;28;20415;-82
2022/10/25 08:47:46;;;;;;;23.48;11.63;;;;;;;;;;5041832;28;20441;-82
2022/10/25 08:50:16;;;;;;;21.23;11.55;;;;;;;;;;5039221;28;20502;-82
2022/10/25 08:52:47;;;;;;;22.73;11.57;;;;;;;;;;5042842;28;20436;-83
2022/10/25 08:55:15;;;;;;;23.50;12.23;;;;;;;;;;5040316;28;20792;-82
2022/10/25 08:57:45;;;;;;;23.38;11.20;;;;;;;;;;5041724;28;20427;-82
2022/10/25 09:00:16;;;;;;;22.73;10.80;;;;;;;;;;5043767;28;20417;-83
2022/10/25 09:02:45;;;;;;;20.23;11.43;;;;;;;;;;5038652;28;20498;-81
2022/10/25 09:05:14;;;;;;;18.77;10.73;;;;;;;;;;5038283;28;20434;-81
2022/10/25 09:07:52;;;;;;;20.98;11.27;;;;;;;;;;5043202;28;20429;-82
2022/10/25 09:10:23;;;;;;;16.33;10.90;;;;;;;;;;5041700;28;20428;-81
2022/10/25 09:12:54;;;;;;;16.55;9.95;;;;;;;;;;5038453;28;20429;-82
2022/10/25 09:15:29;;;;;;;22.70;9.80;;;;;;;;;;5041116;28;20437;-83
2022/10/25 09:17:55;;;;;;;13.13;8.70;;;;;;;;;;5041225;28;20431;-83
2022/10/25 09:20:25;;;;;;;19.10;9.90;;;;;;;;;;5040783;28;20809;-83
2022/10/25 09:22:56;;;;;;;19.60;10.23;;;;;;;;;;5041178;28;20434;-82
2022/10/25 09:25:25;;;;;;;18.80;9.68;;;;;;;;;;5040119;28;20417;-80
2022/10/25 09:27:58;;;;;;;22.00;10.25;;;;;;;;;;5041613;28;20437;-79
2022/10/25 09:30:25;;;;;;;23.23;10.20;;;;;;;;;;5040683;28;20433;-81
2022/10/25 09:32:53;;;;;;;18.35;9.80;;;;;;;;;;5042535;28;20459;-80
2022/10/25 09:35:22;;;;;;;16.55;9.57;;;;;;;;;;5042580;28;20410;-79
2022/10/25 09:37:49;;;;;;;13.82;9.55;;;;;;;;;;5041681;28;20809;-81
2022/10/25 09:40:19;;;;;;;23.73;10.75;;;;;;;;;;5041603;28;20922;-81
2022/10/25 09:42:48;;;;;;;19.58;9.57;;;;;;;;;;5042500;28;21082;-88
2022/10/25 09:45:19;;;;;;;24.60;10.05;;;;;;;;;;5041838;28;20423;-82
2022/10/25 09:47:48;;;;;;;17.20;9.60;;;;;;;;;;5044878;28;20425;-81
2022/10/25 09:50:18;;;;;;;17.55;9.38;;;;;;;;;;5045854;28;20434;-87
2022/10/25 09:52:49;;;;;;;15.93;8.20;;;;;;;;;;5039148;28;20442;-80
2022/10/25 09:55:26;;;;;;;18.13;9.40;;;;;;;;;;5041577;28;20432;-82
2022/10/25 09:57:52;;;;;;;16.38;8.60;;;;;;;;;;5043434;28;20434;-80
2022/10/25 10:00:19;;;;;;;15.70;8.80;;;;;;;;;;5039707;28;20433;-83
2022/10/25 10:02:46;;;;;;;19.30;9.00;;;;;;;;;;5041743;28;20452;-81
2022/10/25 10:05:13;;;;;;;17.10;8.77;;;;;;;;;;5041872;28;20426;-82
2022/10/25 10:07:40;;;;;;;18.70;8.00;;;;;;;;;;5044083;28;20433;-83
2022/10/25 10:10:08;;;;;;;15.55;9.55;;;;;;;;;;5045323;28;20407;-82
2022/10/25 10:12:39;;;;;;;19.25;8.70;;;;;;;;;;5047360;28;20439;-81
2022/10/25 10:15:08;;;;;;;17.63;8.30;;;;;;;;;;5045392;28;20432;-82
2022/10/25 10:17:34;;;;;;;17.50;8.32;;;;;;;;;;5050471;28;20799;-82
2022/10/25 10:20:09;;;;;;;16.42;7.35;;;;;;;;;;5046116;28;20424;-82
2022/10/25 10:22:36;;;;;;;13.40;7.03;;;;;;;;;;5049807;28;20432;-82
2022/10/25 10:25:03;;;;;;;15.65;6.80;;;;;;;;;;5045968;28;20432;-83
2022/10/25 10:27:32;;;;;;;14.80;7.35;;;;;;;;;;5030697;28;20436;-82
2022/10/25 10:30:01;;;;;;;10.80;7.13;;;;;;;;;;5045786;28;20431;-82
2022/10/25 10:32:31;;;;;;;14.52;7.00;;;;;;;;;;5046415;28;20453;-82
2022/10/25 10:34:58;;;;;;;17.05;7.10;;;;;;;;;;5046301;28;20413;-83
2022/10/25 10:37:26;;;;;;;16.08;7.10;;;;;;;;;;5046298;28;20822;-82
2022/10/25 10:39:53;;;;;;;15.43;7.55;;;;;;;;;;5046055;28;20417;-82
2022/10/25 10:42:21;;;;;;;14.05;7.50;;;;;;;;;;5044296;28;20926;-82
2022/10/25 10:45:02;;;;;;;16.35;8.10;;;;;;;;;;5047553;28;20424;-82
2022/10/25 10:47:31;;;;;;;12.52;7.43;;;;;;;;;;5043990;28;20429;-81
2022/10/25 10:49:58;;;;;;;16.23;6.50;;;;;;;;;;5044584;28;20423;-82
2022/10/25 10:52:27;;;;;;;14.55;6.15;;;;;;;;;;5044879;28;20431;-81
2022/10/25 10:54:54;;;;;;;12.23;6.10;;;;;;;;;;5041741;28;20471;-82
2022/10/25 10:57:24;;;;;;;13.40;6.80;;;;;;;;;;5043727;28;20436;-83
2022/10/25 10:59:52;;;;;;;14.68;7.30;;;;;;;;;;5043825;28;20471;-82
2022/10/25 11:02:21;;;;;;;22.35;7.95;;;;;;;;;;5043821;28;20439;-82
2022/10/25 11:04:49;;;;;;;15.67;7.00;;;;;;;;;;5040407;28;20930;-82
2022/10/25 11:07:21;;;;;;;15.17;7.30;;;;;;;;;;5044798;28;20421;-83
2022/10/25 11:09:47;;;;;;;13.27;6.32;;;;;;;;;;5040857;28;20490;-83
2022/10/25 11:12:14;;;;;;;12.32;6.60;;;;;;;;;;5045341;28;20428;-84
2022/10/25 11:14:40;;;;;;;10.93;6.67;;;;;;;;;;5042538;28;20945;-83
2022/10/25 11:17:09;;;;;;;12.52;6.65;;;;;;;;;;5043501;28;20436;-83
2022/10/25 11:19:46;;;;;;;11.13;6.90;;;;;;;;;;5045965;28;20415;-84
2022/10/25 11:22:30;;;;;;;11.80;7.30;;;;;;;;;;5042307;28;20545;-85
2022/10/25 11:25:05;;;;;;;11.02;7.75;;;;;;;;;;5045061;28;20410;-84
2022/10/25 11:27:35;;;;;;;14.32;7.50;;;;;;;;;;5046289;28;20444;-84
2022/10/25 11:30:05;;;;;;;13.63;7.72;;;;;;;;;;5041677;28;21847;-83
2022/10/25 11:32:49;;;;;;;15.23;6.90;;;;;;;;;;5045641;28;20425;-82
2022/10/25 11:35:23;;;;;;;18.48;7.65;;;;;;;;;;5048139;28;20445;-82
2022/10/25 11:37:53;;;;;;;21.90;10.90;;;;;;;;;;5040867;28;20440;-84
2022/10/25 11:40:22;;;;;;;17.77;8.88;;;;;;;;;;5042745;28;20433;-81
2022/10/25 11:42:56;;;;;;;21.83;10.65;;;;;;;;;;5043182;28;20433;-83
2022/10/25 11:45:26;;;;;;;17.23;8.90;;;;;;;;;;5042824;28;20423;-82
2022/10/25 11:47:57;;;;;;;15.55;8.55;;;;;;;;;;5041671;28;20429;-82
2022/10/25 11:50:29;;;;;;;12.90;8.30;;;;;;;;;;5045078;28;20416;-83
2022/10/25 11:53:02;;;;;;;12.43;7.27;;;;;;;;;;5043851;28;20453;-85
2022/10/25 11:55:34;;;;;;;18.58;8.10;;;;;;;;;;5045933;28;20424;-84
2022/10/25 11:58:04;;;;;;;14.00;7.38;;;;;;;;;;5042807;28;20430;-81
2022/10/25 12:00:35;;;;;;;15.93;8.07;;;;;;;;;;5044375;28;20429;-83
2022/10/25 12:03:05;;;;;;;12.80;7.00;;;;;;;;;;5045648;28;20429;-81
2022/10/25 12:05:35;;;;;;;14.07;6.90;;;;;;;;;;5042714;28;20448;-81
2022/10/25 12:08:08;;;;;;;11.23;6.63;;;;;;;;;;5044836;28;20435;-84
2022/10/25 12:10:38;;;;;;;16.73;6.30;;;;;;;;;;5041991;28;20430;-82
2022/10/25 12:13:09;;;;;;;15.05;6.63;;;;;;;;;;5041893;28;20957;-81
2022/10/25 12:15:39;;;;;;;14.35;6.25;;;;;;;;;;5044668;28;20442;-84
2022/10/25 12:18:06;;;;;;;11.63;5.70;;;;;;;;;;5039015;28;20452;-82
2022/10/25 12:20:32;;;;;;;12.18;6.80;;;;;;;;;;5041270;28;20430;-83
2022/10/25 12:23:01;;;;;;;12.20;6.93;;;;;;;;;;5039098;28;20419;-81
2022/10/25 12:25:29;;;;;;;11.63;6.80;;;;;;;;;;5042538;28;21295;-82
2022/10/25 12:28:00;;;;;;;14.10;7.47;;;;;;;;;;5042791;28;20458;-83
2022/10/25 12:30:27;;;;;;;15.98;7.00;;;;;;;;;;5041639;28;20429;-81
2022/10/25 12:32:55;;;;;;;13.38;6.60;;;;;;;;;;5042007;28;20427;-82
2022/10/25 12:35:24;;;;;;;12.35;6.00;;;;;;;;;;5040294;28;20425;-81
2022/10/25 12:37:52;;;;;;;12.48;6.40;;;;;;;;;;5042628;28;20436;-81
2022/10/25 12:40:20;;;;;;;12.20;6.38;;;;;;;;;;5042249;28;20437;-82
2022/10/25 12:42:48;;;;;;;15.73;6.80;;;;;;;;;;5042196;28;20928;-82
2022/10/25 12:45:37;;;;;;;10.50;5.97;;;;;;;;;;5041280;28;20912;-83
2022/10/25 12:48:09;;;;;;;9.68;6.07;;;;;;;;;;5043808;28;20507;-84
2022/10/25 12:50:45;;;;;;;10.43;5.30;;;;;;;;;;5040088;28;20428;-83
2022/10/25 12:53:34;;;;;;;8.25;5.70;;;;;;;;;;5041732;28;20431;-82
2022/10/25 12:56:02;;;;;;;11.60;5.50;;;;;;;;;;5039402;28;20920;-83
2022/10/25 12:58:39;;;;;;;12.18;5.63;;;;;;;;;;5043632;28;20524;-83
2022/10/25 13:01:20;;;;;;;12.38;6.00;;;;;;;;;;5039238;28;20482;-83
2022/10/25 13:04:01;;;;;;;11.15;5.00;;;;;;;;;;5039495;28;21009;-84
2022/10/25 13:06:31;;;;;;;8.77;5.03;;;;;;;;;;5018360;28;20429;-83
2022/10/25 13:09:01;;;;;;;13.93;5.80;;;;;;;;;;5037360;28;20507;-83
2022/10/25 13:11:32;;;;;;;9.73;4.80;;;;;;;;;;5040524;28;20433;-83
2022/10/25 13:13:59;;;;;;;10.00;4.90;;;;;;;;;;5039424;28;20460;-83
2022/10/25 13:16:26;;;;;;;11.13;5.20;;;;;;;;;;5042896;28;20787;-82
2022/10/25 13:19:16;;;;;;;9.05;5.80;;;;;;;;;;5042401;28;20437;-83
2022/10/25 13:22:01;;;;;;;11.40;5.30;;;;;;;;;;5042560;28;20407;-81
2022/10/25 13:24:38;;;;;;;9.70;5.75;;;;;;;;;;5039706;28;20429;-82
2022/10/25 13:27:13;;;;;;;9.73;5.88;;;;;;;;;;5040574;28;20926;-84
2022/10/25 13:29:49;;;;;;;7.00;4.95;;;;;;;;;;5039487;28;20410;-82
2022/10/25 13:32:17;;;;;;;9.63;5.28;;;;;;;;;;5040979;28;20516;-82
2022/10/25 13:34:43;;;;;;;12.43;5.60;;;;;;;;;;5040885;28;20834;-82
2022/10/25 13:37:24;;;;;;;9.95;4.95;;;;;;;;;;5038409;28;20432;-82
2022/10/25 13:39:54;;;;;;;9.88;4.10;;;;;;;;;;5040458;28;20411;-82
2022/10/25 13:42:22;;;;;;;8.90;3.70;;;;;;;;;;5038231;28;20435;-82
2022/10/25 13:44:53;;;;;;;10.50;4.10;;;;;;;;;;5040552;28;20988;-82
2022/10/25 13:47:28;;;;;;;6.30;3.60;;;;;;;;;;5040654;28;20443;-82
2022/10/25 13:49:55;;;;;;;7.88;3.83;;;;;;;;;;5039695;28;20417;-83
2022/10/25 13:52:23;;;;;;;11.13;4.00;;;;;;;;;;5042905;28;20425;-83
2022/10/25 13:54:53;;;;;;;10.77;4.00;;;;;;;;;;5040417;28;20443;-83
2022/10/25 13:57:38;;;;;;;9.80;4.03;;;;;;;;;;5043460;28;20433;-81
2022/10/25 14:00:11;;;;;;;9.63;4.45;;;;;;;;;;5040594;28;20959;-83
2022/10/25 14:03:01;;;;;;;11.07;3.65;;;;;;;;;;5038030;28;20439;-81
2022/10/25 14:05:43;;;;;;;5.45;3.90;;;;;;;;;;5039642;28;20424;-81
2022/10/25 14:08:11;;;;;;;9.32;4.32;;;;;;;;;;5006887;28;20415;-82
2022/10/25 14:10:38;;;;;;;8.50;4.28;;;;;;;;;;5037710;28;20427;-81
2022/10/25 14:13:15;;;;;;;8.90;4.60;;;;;;;;;;5039936;28;20506;-80
2022/10/25 14:15:58;;;;;;;8.13;4.50;;;;;;;;;;5043837;28;20413;-81
2022/10/25 14:18:26;;;;;;;9.40;4.27;;;;;;;;;;5039145;28;20444;-83
2022/10/25 14:20:54;;;;;;;8.43;4.25;;;;;;;;;;5037943;28;20426;-82
2022/10/25 14:23:22;;;;;;;12.60;5.13;;;;;;;;;;5043407;28;20470;-80
2022/10/25 14:25:50;;;;;;;10.35;5.18;;;;;;;;;;5037327;28;20964;-81
2022/10/25 14:28:21;;;;;;;11.02;5.90;;;;;;;;;;5040241;28;20425;-83
2022/10/25 14:30:48;;;;;;;12.82;5.35;;;;;;;;;;5038535;28;20522;-83
2022/10/25 14:33:22;;;;;;;12.57;6.00;;;;;;;;;;5041399;28;20937;-83